sensor_id;sensor_type;location;lat;lon;timestamp;temperature;humidity
46091;DHT22;31826;53.572;10.170;2023-08-24T00:00:39;20.30;99.90
46091;DHT22;31826;53.572;10.170;2023-08-24T00:03:06;20.30;99.90
46091;DHT22;31826;53.572;10.170;2023-08-24T00:05:35;20.20;99.90
46091;DHT22;31826;53.572;10.170;2023-08-24T00:08:08;20.30;99.90
46091;DHT22;31826;53.572;10.170;2023-08-24T00:10:35;20.20;99.90
46091;DHT22;31826;53.572;10.170;2023-08-24T00:13:01;20.20;99.90
46091;DHT22;31826;53.572;10.170;2023-08-24T00:15:27;20.10;99.90
46091;DHT22;31826;53.572;10.170;2023-08-24T00:17:52;20.10;99.90
46091;DHT22;31826;53.572;10.170;2023-08-24T00:20:18;20.10;99.90
46091;DHT22;31826;53.572;10.170;2023-08-24T00:22:45;20.10;99.90
46091;DHT22;31826;53.572;10.170;2023-08-24T00:25:11;20.00;99.90
46091;DHT22;31826;53.572;10.170;2023-08-24T00:27:37;20.00;99.90
46091;DHT22;31826;53.572;10.170;2023-08-24T00:30:05;20.00;99.90
46091;DHT22;31826;53.572;10.170;2023-08-24T00:32:32;20.00;99.90
46091;DHT22;31826;53.572;10.170;2023-08-24T00:35:02;19.90;99.90
46091;DHT22;31826;53.572;10.170;2023-08-24T00:37:29;19.80;99.90
46091;DHT22;31826;53.572;10.170;2023-08-24T00:39:54;19.80;99.90
46091;DHT22;31826;53.572;10.170;2023-08-24T00:42:21;19.80;99.90
46091;DHT22;31826;53.572;10.170;2023-08-24T00:44:48;19.80;99.90
46091;DHT22;31826;53.572;10.170;2023-08-24T00:47:15;19.80;99.90
46091;DHT22;31826;53.572;10.170;2023-08-24T00:49:41;19.80;99.90
46091;DHT22;31826;53.572;10.170;2023-08-24T00:52:07;19.90;99.90
46091;DHT22;31826;53.572;10.170;2023-08-24T00:54:33;19.80;99.90
46091;DHT22;31826;53.572;10.170;2023-08-24T00:56:59;19.80;99.90
46091;DHT22;31826;53.572;10.170;2023-08-24T00:59:25;19.80;99.90
46091;DHT22;31826;53.572;10.170;2023-08-24T01:01:51;19.80;99.90
46091;DHT22;31826;53.572;10.170;2023-08-24T01:04:17;19.80;99.90
46091;DHT22;31826;53.572;10.170;2023-08-24T01:06:43;19.80;99.90
46091;DHT22;31826;53.572;10.170;2023-08-24T01:09:09;19.80;99.90
46091;DHT22;31826;53.572;10.170;2023-08-24T01:14:21;19.70;99.90
46091;DHT22;31826;53.572;10.170;2023-08-24T01:16:50;19.70;99.90
46091;DHT22;31826;53.572;10.170;2023-08-24T01:19:34;19.70;99.90
46091;DHT22;31826;53.572;10.170;2023-08-24T01:22:07;19.70;99.90
46091;DHT22;31826;53.572;10.170;2023-08-24T01:24:40;19.70;99.90
46091;DHT22;31826;53.572;10.170;2023-08-24T01:27:09;19.70;99.90
46091;DHT22;31826;53.572;10.170;2023-08-24T01:29:36;19.70;99.90
46091;DHT22;31826;53.572;10.170;2023-08-24T01:32:02;19.60;99.90
46091;DHT22;31826;53.572;10.170;2023-08-24T01:34:28;19.60;99.90
46091;DHT22;31826;53.572;10.170;2023-08-24T01:36:53;19.60;99.90
46091;DHT22;31826;53.572;10.170;2023-08-24T01:39:31;19.50;99.90
46091;DHT22;31826;53.572;10.170;2023-08-24T01:42:02;19.50;99.90
46091;DHT22;31826;53.572;10.170;2023-08-24T01:44:35;19.50;99.90
46091;DHT22;31826;53.572;10.170;2023-08-24T01:47:04;19.40;99.90
46091;DHT22;31826;53.572;10.170;2023-08-24T01:49:31;19.40;99.90
46091;DHT22;31826;53.572;10.170;2023-08-24T01:51:57;19.40;99.90
46091;DHT22;31826;53.572;10.170;2023-08-24T01:54:23;19.30;99.90
46091;DHT22;31826;53.572;10.170;2023-08-24T01:56:49;19.30;99.90
46091;DHT22;31826;53.572;10.170;2023-08-24T01:59:15;19.30;99.90
46091;DHT22;31826;53.572;10.170;2023-08-24T02:01:40;19.30;99.90
46091;DHT22;31826;53.572;10.170;2023-08-24T02:04:06;19.30;99.90
46091;DHT22;31826;53.572;10.170;2023-08-24T02:06:32;19.30;99.90
46091;DHT22;31826;53.572;10.170;2023-08-24T02:08:58;19.20;99.90
46091;DHT22;31826;53.572;10.170;2023-08-24T02:11:24;19.10;99.90
46091;DHT22;31826;53.572;10.170;2023-08-24T02:13:50;19.00;99.90
46091;DHT22;31826;53.572;10.170;2023-08-24T02:16:15;19.00;99.90
46091;DHT22;31826;53.572;10.170;2023-08-24T02:18:41;19.00;99.90
46091;DHT22;31826;53.572;10.170;2023-08-24T02:21:10;18.90;99.90
46091;DHT22;31826;53.572;10.170;2023-08-24T02:23:38;19.00;99.90
46091;DHT22;31826;53.572;10.170;2023-08-24T02:26:04;19.00;99.90
46091;DHT22;31826;53.572;10.170;2023-08-24T02:28:30;19.00;99.90
46091;DHT22;31826;53.572;10.170;2023-08-24T02:31:00;18.90;99.90
46091;DHT22;31826;53.572;10.170;2023-08-24T02:33:26;18.90;99.90
46091;DHT22;31826;53.572;10.170;2023-08-24T02:35:52;18.80;99.90
46091;DHT22;31826;53.572;10.170;2023-08-24T02:38:18;18.80;99.90
46091;DHT22;31826;53.572;10.170;2023-08-24T02:40:43;18.80;99.90
46091;DHT22;31826;53.572;10.170;2023-08-24T02:43:09;18.80;99.90
46091;DHT22;31826;53.572;10.170;2023-08-24T02:45:35;18.80;99.90
46091;DHT22;31826;53.572;10.170;2023-08-24T02:48:01;18.70;99.90
46091;DHT22;31826;53.572;10.170;2023-08-24T02:50:26;18.70;99.90
46091;DHT22;31826;53.572;10.170;2023-08-24T02:52:52;18.70;99.90
46091;DHT22;31826;53.572;10.170;2023-08-24T02:55:18;18.70;99.90
46091;DHT22;31826;53.572;10.170;2023-08-24T02:57:43;18.70;99.90
46091;DHT22;31826;53.572;10.170;2023-08-24T03:00:09;18.60;99.90
46091;DHT22;31826;53.572;10.170;2023-08-24T03:02:35;18.60;99.90
46091;DHT22;31826;53.572;10.170;2023-08-24T03:05:02;18.60;99.90
46091;DHT22;31826;53.572;10.170;2023-08-24T03:07:28;18.60;99.90
46091;DHT22;31826;53.572;10.170;2023-08-24T03:09:53;18.50;99.90
46091;DHT22;31826;53.572;10.170;2023-08-24T03:12:19;18.50;99.90
46091;DHT22;31826;53.572;10.170;2023-08-24T03:14:45;18.50;99.90
46091;DHT22;31826;53.572;10.170;2023-08-24T03:17:11;18.40;99.90
46091;DHT22;31826;53.572;10.170;2023-08-24T03:19:37;18.50;99.90
46091;DHT22;31826;53.572;10.170;2023-08-24T03:22:02;18.40;99.90
46091;DHT22;31826;53.572;10.170;2023-08-24T03:24:28;18.30;99.90
46091;DHT22;31826;53.572;10.170;2023-08-24T03:26:54;18.30;99.90
46091;DHT22;31826;53.572;10.170;2023-08-24T03:29:19;18.30;99.90
46091;DHT22;31826;53.572;10.170;2023-08-24T03:31:45;18.20;99.90
46091;DHT22;31826;53.572;10.170;2023-08-24T03:34:11;18.20;99.90
46091;DHT22;31826;53.572;10.170;2023-08-24T03:36:36;18.20;99.90
46091;DHT22;31826;53.572;10.170;2023-08-24T03:39:03;18.10;99.90
46091;DHT22;31826;53.572;10.170;2023-08-24T03:41:29;18.00;99.90
46091;DHT22;31826;53.572;10.170;2023-08-24T03:43:54;18.00;99.90
46091;DHT22;31826;53.572;10.170;2023-08-24T03:46:20;18.00;99.90
46091;DHT22;31826;53.572;10.170;2023-08-24T03:48:46;18.00;99.90
46091;DHT22;31826;53.572;10.170;2023-08-24T03:51:12;18.00;99.90
46091;DHT22;31826;53.572;10.170;2023-08-24T03:53:37;17.90;99.90
46091;DHT22;31826;53.572;10.170;2023-08-24T03:56:04;17.80;99.90
46091;DHT22;31826;53.572;10.170;2023-08-24T03:58:29;17.80;99.90
46091;DHT22;31826;53.572;10.170;2023-08-24T04:00:55;17.80;99.90
46091;DHT22;31826;53.572;10.170;2023-08-24T04:03:21;17.80;99.90
46091;DHT22;31826;53.572;10.170;2023-08-24T04:05:47;17.80;99.90
46091;DHT22;31826;53.572;10.170;2023-08-24T04:08:12;17.80;99.90
46091;DHT22;31826;53.572;10.170;2023-08-24T04:10:38;17.70;99.90
46091;DHT22;31826;53.572;10.170;2023-08-24T04:13:04;17.80;99.90
46091;DHT22;31826;53.572;10.170;2023-08-24T04:15:29;17.70;99.90
46091;DHT22;31826;53.572;10.170;2023-08-24T04:17:55;17.70;99.90
46091;DHT22;31826;53.572;10.170;2023-08-24T04:20:22;17.70;99.90
46091;DHT22;31826;53.572;10.170;2023-08-24T04:22:47;17.70;99.90
46091;DHT22;31826;53.572;10.170;2023-08-24T04:25:13;17.70;99.90
46091;DHT22;31826;53.572;10.170;2023-08-24T04:27:39;17.70;99.90
46091;DHT22;31826;53.572;10.170;2023-08-24T04:30:05;17.70;99.90
46091;DHT22;31826;53.572;10.170;2023-08-24T04:32:32;17.60;99.90
46091;DHT22;31826;53.572;10.170;2023-08-24T04:34:58;17.60;99.90
46091;DHT22;31826;53.572;10.170;2023-08-24T04:37:23;17.70;99.90
46091;DHT22;31826;53.572;10.170;2023-08-24T04:39:49;17.60;99.90
46091;DHT22;31826;53.572;10.170;2023-08-24T04:42:15;17.60;99.90
46091;DHT22;31826;53.572;10.170;2023-08-24T04:44:41;17.70;99.90
46091;DHT22;31826;53.572;10.170;2023-08-24T04:47:07;17.70;99.90
46091;DHT22;31826;53.572;10.170;2023-08-24T04:49:32;17.70;99.90
46091;DHT22;31826;53.572;10.170;2023-08-24T04:51:58;17.70;99.90
46091;DHT22;31826;53.572;10.170;2023-08-24T04:54:24;17.60;99.90
46091;DHT22;31826;53.572;10.170;2023-08-24T04:56:49;17.70;99.90
46091;DHT22;31826;53.572;10.170;2023-08-24T04:59:15;17.60;99.90
46091;DHT22;31826;53.572;10.170;2023-08-24T05:01:41;17.60;99.90
46091;DHT22;31826;53.572;10.170;2023-08-24T05:04:06;17.60;99.90
46091;DHT22;31826;53.572;10.170;2023-08-24T05:06:32;17.60;99.90
46091;DHT22;31826;53.572;10.170;2023-08-24T05:08:58;17.50;99.90
46091;DHT22;31826;53.572;10.170;2023-08-24T05:11:26;17.60;99.90
46091;DHT22;31826;53.572;10.170;2023-08-24T05:13:52;17.60;99.90
46091;DHT22;31826;53.572;10.170;2023-08-24T05:16:18;17.70;99.90
46091;DHT22;31826;53.572;10.170;2023-08-24T05:18:44;17.70;99.90
46091;DHT22;31826;53.572;10.170;2023-08-24T05:21:09;17.80;99.90
46091;DHT22;31826;53.572;10.170;2023-08-24T05:23:35;17.80;99.90
46091;DHT22;31826;53.572;10.170;2023-08-24T05:26:02;17.80;99.90
46091;DHT22;31826;53.572;10.170;2023-08-24T05:28:29;17.80;99.90
46091;DHT22;31826;53.572;10.170;2023-08-24T05:30:55;17.80;99.90
46091;DHT22;31826;53.572;10.170;2023-08-24T05:33:23;17.90;99.90
46091;DHT22;31826;53.572;10.170;2023-08-24T05:35:49;17.90;99.90
46091;DHT22;31826;53.572;10.170;2023-08-24T05:38:16;18.00;99.90
46091;DHT22;31826;53.572;10.170;2023-08-24T05:40:51;18.00;99.90
46091;DHT22;31826;53.572;10.170;2023-08-24T05:43:16;18.10;99.90
46091;DHT22;31826;53.572;10.170;2023-08-24T05:45:42;18.20;99.90
46091;DHT22;31826;53.572;10.170;2023-08-24T05:48:10;18.20;99.90
46091;DHT22;31826;53.572;10.170;2023-08-24T05:50:37;18.30;99.90
46091;DHT22;31826;53.572;10.170;2023-08-24T05:53:03;18.30;99.90
46091;DHT22;31826;53.572;10.170;2023-08-24T05:55:29;18.40;99.90
46091;DHT22;31826;53.572;10.170;2023-08-24T05:57:55;18.50;99.90
46091;DHT22;31826;53.572;10.170;2023-08-24T06:00:20;18.60;99.90
46091;DHT22;31826;53.572;10.170;2023-08-24T06:02:47;18.60;99.90
46091;DHT22;31826;53.572;10.170;2023-08-24T06:05:13;18.70;99.90
46091;DHT22;31826;53.572;10.170;2023-08-24T06:07:39;18.70;99.90
46091;DHT22;31826;53.572;10.170;2023-08-24T06:10:05;18.80;99.90
46091;DHT22;31826;53.572;10.170;2023-08-24T06:12:31;18.70;99.90
46091;DHT22;31826;53.572;10.170;2023-08-24T06:14:56;18.80;99.90
46091;DHT22;31826;53.572;10.170;2023-08-24T06:17:22;18.90;99.90
46091;DHT22;31826;53.572;10.170;2023-08-24T06:19:48;19.00;99.90
46091;DHT22;31826;53.572;10.170;2023-08-24T06:22:13;19.10;99.90
46091;DHT22;31826;53.572;10.170;2023-08-24T06:24:39;19.10;99.90
46091;DHT22;31826;53.572;10.170;2023-08-24T06:27:05;19.20;99.90
46091;DHT22;31826;53.572;10.170;2023-08-24T06:29:30;19.30;99.90
46091;DHT22;31826;53.572;10.170;2023-08-24T06:31:56;19.40;99.90
46091;DHT22;31826;53.572;10.170;2023-08-24T06:34:22;19.40;99.90
46091;DHT22;31826;53.572;10.170;2023-08-24T06:36:49;19.50;99.90
46091;DHT22;31826;53.572;10.170;2023-08-24T06:39:16;19.80;99.90
46091;DHT22;31826;53.572;10.170;2023-08-24T06:41:41;19.80;99.90
46091;DHT22;31826;53.572;10.170;2023-08-24T06:44:07;19.90;99.90
46091;DHT22;31826;53.572;10.170;2023-08-24T06:46:33;20.00;99.90
46091;DHT22;31826;53.572;10.170;2023-08-24T06:48:59;19.80;99.90
46091;DHT22;31826;53.572;10.170;2023-08-24T06:51:27;19.80;99.90
46091;DHT22;31826;53.572;10.170;2023-08-24T06:53:56;19.90;99.90
46091;DHT22;31826;53.572;10.170;2023-08-24T06:56:21;20.20;99.90
46091;DHT22;31826;53.572;10.170;2023-08-24T06:58:48;20.40;99.90
46091;DHT22;31826;53.572;10.170;2023-08-24T07:01:15;20.50;99.90
46091;DHT22;31826;53.572;10.170;2023-08-24T07:03:41;20.50;99.90
46091;DHT22;31826;53.572;10.170;2023-08-24T07:06:07;20.60;99.90
46091;DHT22;31826;53.572;10.170;2023-08-24T07:08:33;20.50;99.90
46091;DHT22;31826;53.572;10.170;2023-08-24T07:11:00;20.50;99.90
46091;DHT22;31826;53.572;10.170;2023-08-24T07:13:26;20.50;99.90
46091;DHT22;31826;53.572;10.170;2023-08-24T07:15:52;20.70;99.90
46091;DHT22;31826;53.572;10.170;2023-08-24T07:18:18;20.80;99.90
46091;DHT22;31826;53.572;10.170;2023-08-24T07:20:44;21.00;99.90
46091;DHT22;31826;53.572;10.170;2023-08-24T07:23:09;21.10;99.90
46091;DHT22;31826;53.572;10.170;2023-08-24T07:25:35;21.20;99.90
46091;DHT22;31826;53.572;10.170;2023-08-24T07:28:01;21.30;99.90
46091;DHT22;31826;53.572;10.170;2023-08-24T07:30:28;21.40;99.90
46091;DHT22;31826;53.572;10.170;2023-08-24T07:32:54;21.60;99.90
46091;DHT22;31826;53.572;10.170;2023-08-24T07:35:20;21.50;99.90
46091;DHT22;31826;53.572;10.170;2023-08-24T07:37:49;21.70;99.90
46091;DHT22;31826;53.572;10.170;2023-08-24T07:40:15;21.70;99.90
46091;DHT22;31826;53.572;10.170;2023-08-24T07:42:54;21.80;99.90
46091;DHT22;31826;53.572;10.170;2023-08-24T07:45:22;22.00;99.90
46091;DHT22;31826;53.572;10.170;2023-08-24T07:47:49;21.80;99.90
46091;DHT22;31826;53.572;10.170;2023-08-24T07:50:14;21.80;99.90
46091;DHT22;31826;53.572;10.170;2023-08-24T07:52:40;22.00;99.90
46091;DHT22;31826;53.572;10.170;2023-08-24T07:55:07;21.80;99.90
46091;DHT22;31826;53.572;10.170;2023-08-24T07:57:37;21.90;99.90
46091;DHT22;31826;53.572;10.170;2023-08-24T08:00:04;21.90;99.90
46091;DHT22;31826;53.572;10.170;2023-08-24T08:02:30;22.10;99.90
46091;DHT22;31826;53.572;10.170;2023-08-24T08:04:58;22.40;99.90
46091;DHT22;31826;53.572;10.170;2023-08-24T08:07:25;22.20;99.90
46091;DHT22;31826;53.572;10.170;2023-08-24T08:09:51;21.80;99.90
46091;DHT22;31826;53.572;10.170;2023-08-24T08:12:16;21.70;99.90
46091;DHT22;31826;53.572;10.170;2023-08-24T08:14:42;21.60;99.90
46091;DHT22;31826;53.572;10.170;2023-08-24T08:17:08;21.70;99.90
46091;DHT22;31826;53.572;10.170;2023-08-24T08:19:33;21.80;99.90
46091;DHT22;31826;53.572;10.170;2023-08-24T08:22:01;21.80;99.90
46091;DHT22;31826;53.572;10.170;2023-08-24T08:24:27;21.90;99.90
46091;DHT22;31826;53.572;10.170;2023-08-24T08:26:53;22.10;99.90
46091;DHT22;31826;53.572;10.170;2023-08-24T08:29:18;22.10;99.90
46091;DHT22;31826;53.572;10.170;2023-08-24T08:31:44;21.90;99.90
46091;DHT22;31826;53.572;10.170;2023-08-24T08:34:10;22.30;99.90
46091;DHT22;31826;53.572;10.170;2023-08-24T08:36:35;22.70;99.90
46091;DHT22;31826;53.572;10.170;2023-08-24T08:39:01;22.60;99.90
46091;DHT22;31826;53.572;10.170;2023-08-24T08:41:31;22.50;99.90
46091;DHT22;31826;53.572;10.170;2023-08-24T08:43:59;22.40;99.90
46091;DHT22;31826;53.572;10.170;2023-08-24T08:46:25;22.80;99.90
46091;DHT22;31826;53.572;10.170;2023-08-24T08:48:53;22.90;99.90
46091;DHT22;31826;53.572;10.170;2023-08-24T08:51:19;22.70;99.90
46091;DHT22;31826;53.572;10.170;2023-08-24T08:53:45;22.80;99.90
46091;DHT22;31826;53.572;10.170;2023-08-24T08:56:11;23.10;99.90
46091;DHT22;31826;53.572;10.170;2023-08-24T08:58:37;23.60;99.90
46091;DHT22;31826;53.572;10.170;2023-08-24T09:01:04;23.60;99.90
46091;DHT22;31826;53.572;10.170;2023-08-24T09:03:31;23.80;99.90
46091;DHT22;31826;53.572;10.170;2023-08-24T09:05:58;24.20;99.90
46091;DHT22;31826;53.572;10.170;2023-08-24T09:08:26;24.50;99.90
46091;DHT22;31826;53.572;10.170;2023-08-24T09:10:54;24.60;99.90
46091;DHT22;31826;53.572;10.170;2023-08-24T09:13:20;24.50;99.90
46091;DHT22;31826;53.572;10.170;2023-08-24T09:15:46;24.40;99.10
46091;DHT22;31826;53.572;10.170;2023-08-24T09:18:12;24.60;99.10
46091;DHT22;31826;53.572;10.170;2023-08-24T09:20:38;24.40;98.40
46091;DHT22;31826;53.572;10.170;2023-08-24T09:23:04;24.40;99.50
46091;DHT22;31826;53.572;10.170;2023-08-24T09:25:30;24.40;99.90
46091;DHT22;31826;53.572;10.170;2023-08-24T09:28:04;24.30;99.90
46091;DHT22;31826;53.572;10.170;2023-08-24T09:30:32;24.40;99.90
46091;DHT22;31826;53.572;10.170;2023-08-24T09:33:02;24.70;99.90
46091;DHT22;31826;53.572;10.170;2023-08-24T09:35:28;24.50;99.90
46091;DHT22;31826;53.572;10.170;2023-08-24T09:37:54;24.50;99.90
46091;DHT22;31826;53.572;10.170;2023-08-24T09:40:24;24.60;99.90
46091;DHT22;31826;53.572;10.170;2023-08-24T09:42:51;24.80;99.90
46091;DHT22;31826;53.572;10.170;2023-08-24T09:45:17;24.70;99.90
46091;DHT22;31826;53.572;10.170;2023-08-24T09:47:52;24.60;99.30
46091;DHT22;31826;53.572;10.170;2023-08-24T09:50:20;24.70;99.90
46091;DHT22;31826;53.572;10.170;2023-08-24T09:52:47;25.00;99.80
46091;DHT22;31826;53.572;10.170;2023-08-24T09:55:20;25.10;99.00
46091;DHT22;31826;53.572;10.170;2023-08-24T09:57:52;25.30;99.30
46091;DHT22;31826;53.572;10.170;2023-08-24T10:00:19;25.50;98.80
46091;DHT22;31826;53.572;10.170;2023-08-24T10:02:51;25.40;98.00
46091;DHT22;31826;53.572;10.170;2023-08-24T10:05:20;25.40;98.60
46091;DHT22;31826;53.572;10.170;2023-08-24T10:07:54;26.00;98.60
46091;DHT22;31826;53.572;10.170;2023-08-24T10:10:21;26.40;97.50
46091;DHT22;31826;53.572;10.170;2023-08-24T10:12:59;26.50;96.90
46091;DHT22;31826;53.572;10.170;2023-08-24T10:15:26;26.40;95.80
46091;DHT22;31826;53.572;10.170;2023-08-24T10:17:52;26.30;97.50
46091;DHT22;31826;53.572;10.170;2023-08-24T10:20:22;25.60;97.20
46091;DHT22;31826;53.572;10.170;2023-08-24T10:22:48;26.20;98.00
46091;DHT22;31826;53.572;10.170;2023-08-24T10:25:16;26.80;97.70
46091;DHT22;31826;53.572;10.170;2023-08-24T10:27:44;27.10;95.90
46091;DHT22;31826;53.572;10.170;2023-08-24T10:30:12;26.70;95.90
46091;DHT22;31826;53.572;10.170;2023-08-24T10:32:42;26.40;96.50
46091;DHT22;31826;53.572;10.170;2023-08-24T10:35:08;26.20;96.10
46091;DHT22;31826;53.572;10.170;2023-08-24T10:37:34;26.40;97.40
46091;DHT22;31826;53.572;10.170;2023-08-24T10:40:00;27.10;97.10
46091;DHT22;31826;53.572;10.170;2023-08-24T10:42:26;27.70;94.90
46091;DHT22;31826;53.572;10.170;2023-08-24T10:44:52;27.90;95.50
46091;DHT22;31826;53.572;10.170;2023-08-24T10:47:20;27.60;94.40
46091;DHT22;31826;53.572;10.170;2023-08-24T10:52:25;27.70;95.80
46091;DHT22;31826;53.572;10.170;2023-08-24T10:54:52;28.20;94.50
46091;DHT22;31826;53.572;10.170;2023-08-24T10:57:26;28.40;93.00
46091;DHT22;31826;53.572;10.170;2023-08-24T11:00:09;28.30;92.80
46091;DHT22;31826;53.572;10.170;2023-08-24T11:02:45;28.10;92.40
46091;DHT22;31826;53.572;10.170;2023-08-24T11:05:22;28.00;93.20
46091;DHT22;31826;53.572;10.170;2023-08-24T11:10:23;28.30;92.80
46091;DHT22;31826;53.572;10.170;2023-08-24T11:15:30;28.40;93.20
46091;DHT22;31826;53.572;10.170;2023-08-24T11:20:51;28.10;92.20
46091;DHT22;31826;53.572;10.170;2023-08-24T11:23:18;27.80;93.10
46091;DHT22;31826;53.572;10.170;2023-08-24T11:25:45;27.50;92.90
46091;DHT22;31826;53.572;10.170;2023-08-24T11:28:16;28.00;94.20
46091;DHT22;31826;53.572;10.170;2023-08-24T11:30:42;28.40;93.00
46091;DHT22;31826;53.572;10.170;2023-08-24T11:33:08;28.60;91.30
46091;DHT22;31826;53.572;10.170;2023-08-24T11:35:37;28.60;93.00
46091;DHT22;31826;53.572;10.170;2023-08-24T11:38:04;29.10;91.90
46091;DHT22;31826;53.572;10.170;2023-08-24T11:40:30;28.70;92.00
46091;DHT22;31826;53.572;10.170;2023-08-24T11:42:56;28.70;91.90
46091;DHT22;31826;53.572;10.170;2023-08-24T11:45:22;28.50;92.30
46091;DHT22;31826;53.572;10.170;2023-08-24T11:47:49;28.80;92.70
46091;DHT22;31826;53.572;10.170;2023-08-24T11:50:16;28.90;91.80
46091;DHT22;31826;53.572;10.170;2023-08-24T11:52:42;29.10;91.00
46091;DHT22;31826;53.572;10.170;2023-08-24T11:55:09;29.50;90.70
46091;DHT22;31826;53.572;10.170;2023-08-24T11:57:36;28.90;90.10
46091;DHT22;31826;53.572;10.170;2023-08-24T12:00:05;28.20;91.20
46091;DHT22;31826;53.572;10.170;2023-08-24T12:02:32;28.20;92.70
46091;DHT22;31826;53.572;10.170;2023-08-24T12:04:58;28.70;91.90
46091;DHT22;31826;53.572;10.170;2023-08-24T12:07:24;28.90;91.50
46091;DHT22;31826;53.572;10.170;2023-08-24T12:09:51;29.00;90.80
46091;DHT22;31826;53.572;10.170;2023-08-24T12:12:19;28.80;91.80
46091;DHT22;31826;53.572;10.170;2023-08-24T12:14:49;29.10;90.80
46091;DHT22;31826;53.572;10.170;2023-08-24T12:17:16;29.10;91.10
46091;DHT22;31826;53.572;10.170;2023-08-24T12:19:53;28.50;90.70
46091;DHT22;31826;53.572;10.170;2023-08-24T12:22:21;28.90;91.90
46091;DHT22;31826;53.572;10.170;2023-08-24T12:24:47;29.30;90.80
46091;DHT22;31826;53.572;10.170;2023-08-24T12:27:26;28.40;92.10
46091;DHT22;31826;53.572;10.170;2023-08-24T12:29:52;27.80;92.10
46091;DHT22;31826;53.572;10.170;2023-08-24T12:32:19;27.80;92.40
46091;DHT22;31826;53.572;10.170;2023-08-24T12:34:49;28.30;92.10
46091;DHT22;31826;53.572;10.170;2023-08-24T12:37:17;28.60;90.70
46091;DHT22;31826;53.572;10.170;2023-08-24T12:39:43;28.50;91.80
46091;DHT22;31826;53.572;10.170;2023-08-24T12:42:09;28.70;91.50
46091;DHT22;31826;53.572;10.170;2023-08-24T12:44:34;28.80;91.00
46091;DHT22;31826;53.572;10.170;2023-08-24T12:47:02;27.90;91.30
46091;DHT22;31826;53.572;10.170;2023-08-24T12:49:28;28.50;92.40
46091;DHT22;31826;53.572;10.170;2023-08-24T12:51:54;28.90;90.90
46091;DHT22;31826;53.572;10.170;2023-08-24T12:54:20;28.10;91.20
46091;DHT22;31826;53.572;10.170;2023-08-24T12:56:46;27.70;91.20
46091;DHT22;31826;53.572;10.170;2023-08-24T12:59:12;27.60;91.40
46091;DHT22;31826;53.572;10.170;2023-08-24T13:01:38;27.70;91.90
46091;DHT22;31826;53.572;10.170;2023-08-24T13:04:04;28.10;92.60
46091;DHT22;31826;53.572;10.170;2023-08-24T13:06:30;28.40;91.30
46091;DHT22;31826;53.572;10.170;2023-08-24T13:08:56;28.90;91.40
46091;DHT22;31826;53.572;10.170;2023-08-24T13:11:22;29.20;90.20
46091;DHT22;31826;53.572;10.170;2023-08-24T13:13:48;29.50;90.70
46091;DHT22;31826;53.572;10.170;2023-08-24T13:16:14;29.30;90.30
46091;DHT22;31826;53.572;10.170;2023-08-24T13:18:40;29.50;90.40
46091;DHT22;31826;53.572;10.170;2023-08-24T13:21:06;29.50;90.00
46091;DHT22;31826;53.572;10.170;2023-08-24T13:23:32;28.90;90.00
46091;DHT22;31826;53.572;10.170;2023-08-24T13:25:59;28.00;90.80
46091;DHT22;31826;53.572;10.170;2023-08-24T13:28:25;28.40;91.20
46091;DHT22;31826;53.572;10.170;2023-08-24T13:30:51;28.30;90.60
46091;DHT22;31826;53.572;10.170;2023-08-24T13:33:16;28.80;90.70
46091;DHT22;31826;53.572;10.170;2023-08-24T13:35:43;29.20;90.00
46091;DHT22;31826;53.572;10.170;2023-08-24T13:38:09;29.40;88.20
46091;DHT22;31826;53.572;10.170;2023-08-24T13:40:35;28.70;90.00
46091;DHT22;31826;53.572;10.170;2023-08-24T13:43:00;28.00;91.50
46091;DHT22;31826;53.572;10.170;2023-08-24T13:45:26;27.60;91.40
46091;DHT22;31826;53.572;10.170;2023-08-24T13:47:52;27.20;92.20
46091;DHT22;31826;53.572;10.170;2023-08-24T13:50:18;27.10;92.40
46091;DHT22;31826;53.572;10.170;2023-08-24T13:52:44;27.50;93.20
46091;DHT22;31826;53.572;10.170;2023-08-24T13:55:09;27.60;92.00
46091;DHT22;31826;53.572;10.170;2023-08-24T13:57:35;27.60;92.00
46091;DHT22;31826;53.572;10.170;2023-08-24T14:00:01;27.40;91.80
46091;DHT22;31826;53.572;10.170;2023-08-24T14:02:29;27.20;93.20
46091;DHT22;31826;53.572;10.170;2023-08-24T14:04:54;27.10;93.50
46091;DHT22;31826;53.572;10.170;2023-08-24T14:07:20;27.10;93.60
46091;DHT22;31826;53.572;10.170;2023-08-24T14:09:46;27.10;93.30
46091;DHT22;31826;53.572;10.170;2023-08-24T14:12:12;27.10;92.70
46091;DHT22;31826;53.572;10.170;2023-08-24T14:14:37;27.00;94.00
46091;DHT22;31826;53.572;10.170;2023-08-24T14:17:03;27.00;93.30
46091;DHT22;31826;53.572;10.170;2023-08-24T14:19:29;27.10;93.50
46091;DHT22;31826;53.572;10.170;2023-08-24T14:21:54;26.70;93.20
46091;DHT22;31826;53.572;10.170;2023-08-24T14:24:20;26.70;94.00
46091;DHT22;31826;53.572;10.170;2023-08-24T14:26:46;26.80;93.10
46091;DHT22;31826;53.572;10.170;2023-08-24T14:29:12;26.70;94.10
46091;DHT22;31826;53.572;10.170;2023-08-24T14:31:38;27.00;93.10
46091;DHT22;31826;53.572;10.170;2023-08-24T14:34:04;27.30;92.80
46091;DHT22;31826;53.572;10.170;2023-08-24T14:36:30;27.50;92.70
46091;DHT22;31826;53.572;10.170;2023-08-24T14:38:58;27.60;92.40
46091;DHT22;31826;53.572;10.170;2023-08-24T14:41:24;27.70;92.10
46091;DHT22;31826;53.572;10.170;2023-08-24T14:43:50;27.80;93.30
46091;DHT22;31826;53.572;10.170;2023-08-24T14:46:16;27.40;93.10
46091;DHT22;31826;53.572;10.170;2023-08-24T14:48:42;27.20;92.70
46091;DHT22;31826;53.572;10.170;2023-08-24T14:51:07;27.00;93.10
46091;DHT22;31826;53.572;10.170;2023-08-24T14:53:33;27.00;93.40
46091;DHT22;31826;53.572;10.170;2023-08-24T14:55:59;26.50;93.80
46091;DHT22;31826;53.572;10.170;2023-08-24T14:58:26;26.40;94.30
46091;DHT22;31826;53.572;10.170;2023-08-24T15:00:56;26.50;94.40
46091;DHT22;31826;53.572;10.170;2023-08-24T15:03:23;26.30;94.50
46091;DHT22;31826;53.572;10.170;2023-08-24T15:06:02;26.30;95.20
46091;DHT22;31826;53.572;10.170;2023-08-24T15:08:33;26.50;95.30
46091;DHT22;31826;53.572;10.170;2023-08-24T15:11:00;26.60;95.10
46091;DHT22;31826;53.572;10.170;2023-08-24T15:13:26;26.60;93.80
46091;DHT22;31826;53.572;10.170;2023-08-24T15:15:53;26.60;94.40
46091;DHT22;31826;53.572;10.170;2023-08-24T15:18:20;26.60;94.60
46091;DHT22;31826;53.572;10.170;2023-08-24T15:20:45;26.20;94.80
46091;DHT22;31826;53.572;10.170;2023-08-24T15:23:27;26.00;95.90
46091;DHT22;31826;53.572;10.170;2023-08-24T15:25:54;26.20;95.60